Tenacious — ZQHM2 — position and weather

sailwx.info

Track history (hours):
 
Tides and Currents Weather Stations Pressure Air Temp Water Temp Dewpoint Dewpoint Depression Visibility Wind Speed Wind Dir Waves Ship Positions

Tenacious (United Kingdom)

Ship's website: http://www.jst.org.uk/

Last reported at 2017-Jul-01 22:52 UTC. Time now 2017-Jul-28 06:36 UTC.
Position S 36°07' E 174°45'.
Warning: this ship's position is 26 days out of date.

Length 65 m; beam 10.6 m; draft 4.6 m.

Type: Sailing vessel. MMSI: 235000230.

Date/timePositionNaut miles runAvg speedWind from/ knotsBaromVisibWave heightAir tempDewpointWater temp
2017-Jul-01 22:52S 36°07' E 174°45'3 7.1
2017-Jul-01 22:30S 36°09' E 174°47'10 7.7
2017-Jul-01 21:15S 36°17' E 174°53'2 5.8
2017-Jul-01 20:56S 36°19' E 174°54'3 6.1
2017-Jul-01 20:31S 36°22' E 174°54'3 6.5
2017-Jul-01 20:01S 36°25' E 174°54'3 5.9
2017-Jul-01 19:31S 36°28' E 174°53'2 2.8
2017-Jul-01 18:58S 36°27' E 174°52'0 0.1
2017-Jul-01 18:28S 36°27' E 174°52'0 0.1
2017-Jul-01 17:58S 36°27' E 174°52'0 0.0
2017-Jul-01 17:28S 36°27' E 174°52'0 0.1
2017-Jul-01 16:58S 36°27' E 174°52'0 0.0
2017-Jul-01 16:28S 36°27' E 174°52'0 0.0
2017-Jul-01 15:58S 36°27' E 174°52'0 0.0
2017-Jul-01 15:28S 36°27' E 174°52'0 0.0
2017-Jul-01 14:58S 36°27' E 174°52'0 0.0
2017-Jul-01 13:58S 36°27' E 174°52'0 0.0
2017-Jul-01 13:28S 36°27' E 174°52'0 0.0
2017-Jul-01 12:58S 36°27' E 174°52'0 0.0
2017-Jul-01 12:28S 36°27' E 174°52'0 0.0
2017-Jul-01 11:58S 36°27' E 174°52'0 0.0
2017-Jul-01 11:28S 36°27' E 174°52'0 0.0
2017-Jul-01 10:58S 36°27' E 174°52'0 0.0
2017-Jul-01 10:28S 36°27' E 174°52'4 8.8
2017-Jul-01 10:00S 36°24' E 174°48'4140.6 300 / 151013.2 5.4 13.512.615.9
2017-Jul-01 09:58S 36°27' E 174°52'0 0.0
2017-Jul-01 09:28S 36°27' E 174°52'4 8.8
2017-Jul-01 09:00S 36°24' E 174°48'4138.5 010 / 151012.4 5.4 15.614.4
2017-Jul-01 08:58S 36°27' E 174°52'0 0.1
2017-Jul-01 08:28S 36°27' E 174°52'0 0.0
2017-Jul-01 07:58S 36°27' E 174°52'0 0.1
2017-Jul-01 07:28S 36°27' E 174°52'0 0.1
2017-Jul-01 06:58S 36°27' E 174°52'0 0.1
2017-Jul-01 06:28S 36°27' E 174°52'0 0.0
2017-Jul-01 05:58S 36°27' E 174°52'0 0.1
2017-Jul-01 05:28S 36°27' E 174°52'0 0.0
2017-Jul-01 04:58S 36°27' E 174°52'2 3.5
2017-Jul-01 04:30S 36°28' E 174°52'2 3.7
2017-Jul-01 04:00S 36°30' E 174°52'2 3.7
2017-Jul-01 03:30S 36°32' E 174°52'2 3.3
2017-Jul-01 03:00S 36°34' E 174°52'2 3.6
2017-Jul-01 02:30S 36°36' E 174°52'3 5.1
2017-Jul-01 02:00S 36°38' E 174°53'2 4.5
2017-Jul-01 01:30S 36°40' E 174°54'2 3.3
2017-Jul-01 01:00S 36°42' E 174°53'2 3.3
2017-Jul-01 00:30S 36°43' E 174°52'2 3.2
2017-Jul-01 00:00S 36°44' E 174°51'2 3.3
2017-Jun-30 23:30S 36°46' E 174°49'2 3.7
2017-Jun-30 22:59S 36°47' E 174°49'2 5.0
2017-Jun-30 22:30S 36°50' E 174°50'3 6.0
2017-Jun-30 22:00S 36°50' E 174°46'0 0.3
2017-Jun-30 21:01S 36°50' E 174°46'0 0.2
2017-Jun-30 20:49S 36°50' E 174°46'0 0.1
2017-Jun-30 20:25S 36°50' E 174°46'0 0.0
2017-Jun-30 19:55S 36°50' E 174°46'0 0.0
2017-Jun-30 19:19S 36°50' E 174°46'0 0.0
2017-Jun-30 18:55S 36°50' E 174°46'0 0.1
2017-Jun-30 18:25S 36°50' E 174°46'0 0.1
2017-Jun-30 17:55S 36°50' E 174°46'0 0.0
2017-Jun-30 17:19S 36°50' E 174°46'0 0.0
2017-Jun-30 16:55S 36°50' E 174°46'0 0.0
2017-Jun-30 16:19S 36°50' E 174°46'0 0.0
2017-Jun-30 15:55S 36°50' E 174°46'0 0.0
2017-Jun-30 15:25S 36°50' E 174°46'0 0.0
2017-Jun-30 14:55S 36°50' E 174°46'0 0.0
2017-Jun-30 08:25S 36°50' E 174°46'0 0.0
2017-Jun-30 07:49S 36°50' E 174°46'0 0.0
2017-Jun-30 04:39S 36°50' E 174°46'0 1.0
2017-Jun-30 04:30S 36°50' E 174°46'3 6.3
2017-Jun-30 04:00S 36°50' E 174°50'4 6.9
2017-Jun-30 03:29S 36°46' E 174°49'3 7.0
2017-Jun-30 03:00S 36°43' E 174°51'3 5.2
2017-Jun-30 02:30S 36°41' E 174°50'2 3.1
2017-Jun-30 02:00S 36°39' E 174°50'1 2.3
2017-Jun-30 01:30S 36°39' E 174°52'1 2.3
2017-Jun-30 01:00S 36°40' E 174°53'1 2.4
2017-Jun-30 00:30S 36°40' E 174°54'3 6.8
2017-Jun-30 00:00S 36°43' E 174°51'4 8.1
2017-Jun-29 23:30S 36°46' E 174°49'4 7.1
2017-Jun-29 23:00S 36°50' E 174°49'3 5.6
2017-Jun-29 22:29S 36°51' E 174°46'  
2017-Jun-25 22:08S 36°50' E 174°46'0 0.0
2017-Jun-25 21:56S 36°50' E 174°46'0 0.0
2017-Jun-25 21:26S 36°50' E 174°46'0 0.0
2017-Jun-25 20:38S 36°50' E 174°46'0 0.0
2017-Jun-25 20:20S 36°50' E 174°46'0 0.0
2017-Jun-25 19:50S 36°50' E 174°46'0 0.0
2017-Jun-25 19:26S 36°50' E 174°46'0 0.1
2017-Jun-25 18:44S 36°50' E 174°46'0 0.1
2017-Jun-25 18:20S 36°50' E 174°46'0 0.0
2017-Jun-25 17:56S 36°50' E 174°46'0 0.0
2017-Jun-25 16:26S 36°50' E 174°46'0 0.0
2017-Jun-25 15:02S 36°50' E 174°46'0 0.0
2017-Jun-25 14:56S 36°50' E 174°46'0 0.0
2017-Jun-25 13:43S 36°50' E 174°46'0 0.0
2017-Jun-25 11:13S 36°50' E 174°46'0 0.2
2017-Jun-25 10:55S 36°50' E 174°46'0 0.1
2017-Jun-25 10:19S 36°50' E 174°46'0 0.1
2017-Jun-25 09:55S 36°50' E 174°46'0 0.1
2017-Jun-25 09:25S 36°50' E 174°46'0 0.0
2017-Jun-25 08:55S 36°50' E 174°46'0 0.0
2017-Jun-25 08:25S 36°50' E 174°46'0 0.0
2017-Jun-25 07:55S 36°50' E 174°46'0 0.0
2017-Jun-25 07:13S 36°50' E 174°46'0 0.0
2017-Jun-25 06:55S 36°50' E 174°46'0 0.0
2017-Jun-25 06:19S 36°50' E 174°46'0 0.1
2017-Jun-25 05:43S 36°50' E 174°46'0 0.1
2017-Jun-25 04:49S 36°50' E 174°46'0 0.0
2017-Jun-25 04:25S 36°50' E 174°46'2 5.2
2017-Jun-25 04:00S 36°50' E 174°49'4 7.6
2017-Jun-25 03:30S 36°46' E 174°49'4 8.4
2017-Jun-25 03:00S 36°43' E 174°52'4 8.2
2017-Jun-25 02:30S 36°40' E 174°55'1 2.7
2017-Jun-25 02:00S 36°38' E 174°55'1 1.3
2017-Jun-25 01:30S 36°38' E 174°56'1 1.5
2017-Jun-25 01:00S 36°37' E 174°56'2 4.0
2017-Jun-25 00:30S 36°39' E 174°55'2 4.3
2017-Jun-24 23:56S 36°41' E 174°53'2 4.2
2017-Jun-24 23:30S 36°42' E 174°52'3 6.5
2017-Jun-24 23:00S 36°45' E 174°50'4 8.0
2017-Jun-24 22:30S 36°49' E 174°50'3 0.2
2017-Jun-24 02:02S 36°50' E 174°46'  
Track history (hours):
 
Tides and Currents Weather Stations Pressure Air Temp Water Temp Dewpoint Dewpoint Depression Visibility Wind Speed Wind Dir Waves Ship Positions

Tenacious (United Kingdom)

Ship's website: http://www.jst.org.uk/

Last reported at 2017-Jul-01 22:52 UTC. Time now 2017-Jul-28 06:36 UTC.
Position S 36°07' E 174°45'.
Warning: this ship's position is 26 days out of date.

Length 65 m; beam 10.6 m; draft 4.6 m.

Type: Sailing vessel. MMSI: 235000230.

Date/timePositionNaut miles runAvg speedWind from/ knotsBaromVisibWave heightAir tempDewpointWater temp
2017-Jul-01 22:52S 36°07' E 174°45'3 7.1
2017-Jul-01 22:30S 36°09' E 174°47'10 7.7
2017-Jul-01 21:15S 36°17' E 174°53'2 5.8
2017-Jul-01 20:56S 36°19' E 174°54'3 6.1
2017-Jul-01 20:31S 36°22' E 174°54'3 6.5
2017-Jul-01 20:01S 36°25' E 174°54'3 5.9
2017-Jul-01 19:31S 36°28' E 174°53'2 2.8
2017-Jul-01 18:58S 36°27' E 174°52'0 0.1
2017-Jul-01 18:28S 36°27' E 174°52'0 0.1
2017-Jul-01 17:58S 36°27' E 174°52'0 0.0
2017-Jul-01 17:28S 36°27' E 174°52'0 0.1
2017-Jul-01 16:58S 36°27' E 174°52'0 0.0
2017-Jul-01 16:28S 36°27' E 174°52'0 0.0
2017-Jul-01 15:58S 36°27' E 174°52'0 0.0
2017-Jul-01 15:28S 36°27' E 174°52'0 0.0
2017-Jul-01 14:58S 36°27' E 174°52'0 0.0
2017-Jul-01 13:58S 36°27' E 174°52'0 0.0
2017-Jul-01 13:28S 36°27' E 174°52'0 0.0
2017-Jul-01 12:58S 36°27' E 174°52'0 0.0
2017-Jul-01 12:28S 36°27' E 174°52'0 0.0
2017-Jul-01 11:58S 36°27' E 174°52'0 0.0
2017-Jul-01 11:28S 36°27' E 174°52'0 0.0
2017-Jul-01 10:58S 36°27' E 174°52'0 0.0
2017-Jul-01 10:28S 36°27' E 174°52'4 8.8
2017-Jul-01 10:00S 36°24' E 174°48'4140.6 300 / 151013.2 5.4 13.512.615.9
2017-Jul-01 09:58S 36°27' E 174°52'0 0.0
2017-Jul-01 09:28S 36°27' E 174°52'4 8.8
2017-Jul-01 09:00S 36°24' E 174°48'4138.5 010 / 151012.4 5.4 15.614.4
2017-Jul-01 08:58S 36°27' E 174°52'0 0.1
2017-Jul-01 08:28S 36°27' E 174°52'0 0.0
2017-Jul-01 07:58S 36°27' E 174°52'0 0.1
2017-Jul-01 07:28S 36°27' E 174°52'0 0.1
2017-Jul-01 06:58S 36°27' E 174°52'0 0.1
2017-Jul-01 06:28S 36°27' E 174°52'0 0.0
2017-Jul-01 05:58S 36°27' E 174°52'0 0.1
2017-Jul-01 05:28S 36°27' E 174°52'0 0.0
2017-Jul-01 04:58S 36°27' E 174°52'2 3.5
2017-Jul-01 04:30S 36°28' E 174°52'2 3.7
2017-Jul-01 04:00S 36°30' E 174°52'2 3.7
2017-Jul-01 03:30S 36°32' E 174°52'2 3.3
2017-Jul-01 03:00S 36°34' E 174°52'2 3.6
2017-Jul-01 02:30S 36°36' E 174°52'3 5.1
2017-Jul-01 02:00S 36°38' E 174°53'2 4.5
2017-Jul-01 01:30S 36°40' E 174°54'2 3.3
2017-Jul-01 01:00S 36°42' E 174°53'2 3.3
2017-Jul-01 00:30S 36°43' E 174°52'2 3.2
2017-Jul-01 00:00S 36°44' E 174°51'2 3.3
2017-Jun-30 23:30S 36°46' E 174°49'2 3.7
2017-Jun-30 22:59S 36°47' E 174°49'2 5.0
2017-Jun-30 22:30S 36°50' E 174°50'3 6.0
2017-Jun-30 22:00S 36°50' E 174°46'0 0.3
2017-Jun-30 21:01S 36°50' E 174°46'0 0.2
2017-Jun-30 20:49S 36°50' E 174°46'0 0.1
2017-Jun-30 20:25S 36°50' E 174°46'0 0.0
2017-Jun-30 19:55S 36°50' E 174°46'0 0.0
2017-Jun-30 19:19S 36°50' E 174°46'0 0.0
2017-Jun-30 18:55S 36°50' E 174°46'0 0.1
2017-Jun-30 18:25S 36°50' E 174°46'0 0.1
2017-Jun-30 17:55S 36°50' E 174°46'0 0.0
2017-Jun-30 17:19S 36°50' E 174°46'0 0.0
2017-Jun-30 16:55S 36°50' E 174°46'0 0.0
2017-Jun-30 16:19S 36°50' E 174°46'0 0.0
2017-Jun-30 15:55S 36°50' E 174°46'0 0.0
2017-Jun-30 15:25S 36°50' E 174°46'0 0.0
2017-Jun-30 14:55S 36°50' E 174°46'0 0.0
2017-Jun-30 08:25S 36°50' E 174°46'0 0.0
2017-Jun-30 07:49S 36°50' E 174°46'0 0.0
2017-Jun-30 04:39S 36°50' E 174°46'0 1.0
2017-Jun-30 04:30S 36°50' E 174°46'3 6.3
2017-Jun-30 04:00S 36°50' E 174°50'4 6.9
2017-Jun-30 03:29S 36°46' E 174°49'3 7.0
2017-Jun-30 03:00S 36°43' E 174°51'3 5.2
2017-Jun-30 02:30S 36°41' E 174°50'2 3.1
2017-Jun-30 02:00S 36°39' E 174°50'1 2.3
2017-Jun-30 01:30S 36°39' E 174°52'1 2.3
2017-Jun-30 01:00S 36°40' E 174°53'1 2.4
2017-Jun-30 00:30S 36°40' E 174°54'3 6.8
2017-Jun-30 00:00S 36°43' E 174°51'4 8.1
2017-Jun-29 23:30S 36°46' E 174°49'4 7.1
2017-Jun-29 23:00S 36°50' E 174°49'3 5.6
2017-Jun-29 22:29S 36°51' E 174°46'  
2017-Jun-25 22:08S 36°50' E 174°46'0 0.0
2017-Jun-25 21:56S 36°50' E 174°46'0 0.0
2017-Jun-25 21:26S 36°50' E 174°46'0 0.0
2017-Jun-25 20:38S 36°50' E 174°46'0 0.0
2017-Jun-25 20:20S 36°50' E 174°46'0 0.0
2017-Jun-25 19:50S 36°50' E 174°46'0 0.0
2017-Jun-25 19:26S 36°50' E 174°46'0 0.1
2017-Jun-25 18:44S 36°50' E 174°46'0 0.1
2017-Jun-25 18:20S 36°50' E 174°46'0 0.0
2017-Jun-25 17:56S 36°50' E 174°46'0 0.0
2017-Jun-25 16:26S 36°50' E 174°46'0 0.0
2017-Jun-25 15:02S 36°50' E 174°46'0 0.0
2017-Jun-25 14:56S 36°50' E 174°46'0 0.0
2017-Jun-25 13:43S 36°50' E 174°46'0 0.0
2017-Jun-25 11:13S 36°50' E 174°46'0 0.2
2017-Jun-25 10:55S 36°50' E 174°46'0 0.1
2017-Jun-25 10:19S 36°50' E 174°46'0 0.1
2017-Jun-25 09:55S 36°50' E 174°46'0 0.1
2017-Jun-25 09:25S 36°50' E 174°46'0 0.0
2017-Jun-25 08:55S 36°50' E 174°46'0 0.0
2017-Jun-25 08:25S 36°50' E 174°46'0 0.0
2017-Jun-25 07:55S 36°50' E 174°46'0 0.0
2017-Jun-25 07:13S 36°50' E 174°46'0 0.0
2017-Jun-25 06:55S 36°50' E 174°46'0 0.0
2017-Jun-25 06:19S 36°50' E 174°46'0 0.1
2017-Jun-25 05:43S 36°50' E 174°46'0 0.1
2017-Jun-25 04:49S 36°50' E 174°46'0 0.0
2017-Jun-25 04:25S 36°50' E 174°46'2 5.2
2017-Jun-25 04:00S 36°50' E 174°49'4 7.6
2017-Jun-25 03:30S 36°46' E 174°49'4 8.4
2017-Jun-25 03:00S 36°43' E 174°52'4 8.2
2017-Jun-25 02:30S 36°40' E 174°55'1 2.7
2017-Jun-25 02:00S 36°38' E 174°55'1 1.3
2017-Jun-25 01:30S 36°38' E 174°56'1 1.5
2017-Jun-25 01:00S 36°37' E 174°56'2 4.0
2017-Jun-25 00:30S 36°39' E 174°55'2 4.3
2017-Jun-24 23:56S 36°41' E 174°53'2 4.2
2017-Jun-24 23:30S 36°42' E 174°52'3 6.5
2017-Jun-24 23:00S 36°45' E 174°50'4 8.0
2017-Jun-24 22:30S 36°49' E 174°50'3 0.2
2017-Jun-24 02:02S 36°50' E 174°46'  

Dump ship's entire track history